createdAt,value
2022-07-26T00:00:35.993Z,81.44
2022-07-26T00:03:08.353Z,81.62
2022-07-26T00:05:39.718Z,81.80
2022-07-26T00:08:11.122Z,81.80
2022-07-26T00:10:46.351Z,81.83
2022-07-26T00:13:20.262Z,81.59
2022-07-26T00:15:52.130Z,81.63
2022-07-26T00:18:24.035Z,81.64
2022-07-26T00:20:55.611Z,81.79
2022-07-26T00:23:27.193Z,81.66
2022-07-26T00:25:58.517Z,81.91
2022-07-26T00:28:29.971Z,81.44
2022-07-26T00:31:01.411Z,81.71
2022-07-26T00:33:33.306Z,81.46
2022-07-26T00:36:05.029Z,81.44
2022-07-26T00:38:36.545Z,81.54
2022-07-26T00:41:09.131Z,81.60
2022-07-26T00:43:55.046Z,81.35
2022-07-26T00:46:26.714Z,81.75
2022-07-26T00:48:58.175Z,81.40
2022-07-26T00:51:29.736Z,81.33
2022-07-26T00:54:01.182Z,81.42
2022-07-26T00:56:36.188Z,81.38
2022-07-26T00:59:07.927Z,81.53
2022-07-26T01:01:39.555Z,81.37
2022-07-26T01:04:11.484Z,81.23
2022-07-26T01:06:43.218Z,81.30
2022-07-26T01:09:14.759Z,81.27
2022-07-26T01:11:46.416Z,81.27
2022-07-26T01:14:22.730Z,81.04
2022-07-26T01:16:54.359Z,81.24
2022-07-26T01:19:25.764Z,81.06
2022-07-26T01:21:57.139Z,81.26
2022-07-26T01:24:28.677Z,81.23
2022-07-26T01:27:00.152Z,81.15
2022-07-26T01:29:36.138Z,81.21
2022-07-26T01:32:08.596Z,81.35
2022-07-26T01:34:40.198Z,81.52
2022-07-26T01:37:11.874Z,81.41
2022-07-26T01:39:44.218Z,81.19
2022-07-26T01:42:15.512Z,80.90
2022-07-26T01:44:46.806Z,81.30
2022-07-26T01:47:18.511Z,81.16
2022-07-26T01:49:49.871Z,81.44
2022-07-26T01:52:21.212Z,81.55
2022-07-26T01:54:52.958Z,81.90
2022-07-26T01:57:24.273Z,81.77
2022-07-26T01:59:55.658Z,81.87
2022-07-26T02:02:27.134Z,82.07
2022-07-26T02:04:58.728Z,82.14
2022-07-26T02:07:37.052Z,81.98
2022-07-26T02:10:12.626Z,82.04
2022-07-26T02:12:45.303Z,82.25
2022-07-26T02:15:16.706Z,82.25
2022-07-26T02:17:48.010Z,82.29
2022-07-26T02:20:19.396Z,82.06
2022-07-26T02:22:50.769Z,82.24
2022-07-26T02:25:22.154Z,82.27
2022-07-26T02:27:53.525Z,82.52
2022-07-26T02:30:25.082Z,82.37
2022-07-26T02:32:56.775Z,81.82
2022-07-26T02:35:28.220Z,82.16
2022-07-26T02:38:08.606Z,82.29
2022-07-26T02:40:40.518Z,82.18
2022-07-26T02:43:11.972Z,82.28
2022-07-26T02:45:43.317Z,82.08
2022-07-26T02:48:14.643Z,82.27
2022-07-26T02:50:45.943Z,82.70
2022-07-26T02:53:17.298Z,82.27
2022-07-26T02:55:48.616Z,82.72
2022-07-26T02:58:24.922Z,82.56
2022-07-26T03:00:56.322Z,82.62
2022-07-26T03:03:27.717Z,82.41
2022-07-26T03:05:59.040Z,82.36
2022-07-26T03:08:30.910Z,82.43
2022-07-26T03:11:02.313Z,82.73
2022-07-26T03:13:33.717Z,82.41
2022-07-26T03:16:05.614Z,82.56
2022-07-26T03:18:37.267Z,82.44
2022-07-26T03:21:08.593Z,82.48
2022-07-26T03:23:39.902Z,82.68
2022-07-26T03:26:11.353Z,82.77
2022-07-26T03:28:44.410Z,82.69
2022-07-26T03:31:15.760Z,82.90
2022-07-26T03:33:47.179Z,83.02
2022-07-26T03:36:18.632Z,83.04
2022-07-26T03:38:50.004Z,83.22
2022-07-26T03:41:21.313Z,83.03
2022-07-26T03:43:52.631Z,83.37
2022-07-26T03:46:24.064Z,83.60
2022-07-26T03:48:55.985Z,83.44
2022-07-26T03:51:27.365Z,83.47
2022-07-26T03:53:58.681Z,83.50
2022-07-26T03:56:31.811Z,83.69
2022-07-26T03:59:08.385Z,83.81
2022-07-26T04:01:42.297Z,84.08
2022-07-26T04:04:17.683Z,83.99
2022-07-26T04:06:49.170Z,83.76
2022-07-26T04:09:20.514Z,83.91
2022-07-26T04:11:51.909Z,83.94
2022-07-26T04:14:23.221Z,83.78
2022-07-26T04:16:54.647Z,83.93
2022-07-26T04:19:25.987Z,83.98
2022-07-26T04:21:57.306Z,83.87
2022-07-26T04:24:28.611Z,83.66
2022-07-26T04:26:59.942Z,83.12
2022-07-26T04:29:31.345Z,83.74
2022-07-26T04:32:02.716Z,83.61
2022-07-26T04:34:34.018Z,82.81
2022-07-26T04:37:05.316Z,82.92
2022-07-26T04:39:36.635Z,82.72
2022-07-26T04:42:08.041Z,82.50
2022-07-26T04:44:39.417Z,82.80
2022-07-26T04:47:10.703Z,82.71
2022-07-26T04:49:42.075Z,82.76
2022-07-26T04:52:13.386Z,82.45
2022-07-26T04:54:44.695Z,82.37
2022-07-26T04:57:16.050Z,82.12
2022-07-26T04:59:58.111Z,82.24
2022-07-26T05:02:38.980Z,82.10
2022-07-26T05:05:10.519Z,81.70
2022-07-26T05:07:47.648Z,81.80
2022-07-26T05:10:20.754Z,81.80
2022-07-26T05:12:52.150Z,81.96
2022-07-26T05:15:23.650Z,81.80
2022-07-26T05:17:57.282Z,81.56
2022-07-26T05:20:28.986Z,81.27
2022-07-26T05:23:00.421Z,81.45
2022-07-26T05:25:31.854Z,81.55
2022-07-26T05:28:03.939Z,81.16
2022-07-26T05:30:35.322Z,81.50
2022-07-26T05:33:06.739Z,81.28
2022-07-26T05:35:38.277Z,81.31
2022-07-26T05:38:09.811Z,81.24
2022-07-26T05:40:41.201Z,81.65
2022-07-26T05:43:12.533Z,80.78
2022-07-26T05:45:43.984Z,80.54
2022-07-26T05:48:15.342Z,80.15
2022-07-26T05:50:46.649Z,80.04
2022-07-26T05:53:18.005Z,79.95
2022-07-26T05:55:49.355Z,79.82
2022-07-26T05:58:20.874Z,79.71
2022-07-26T06:00:52.481Z,80.00
2022-07-26T06:03:23.869Z,79.49
2022-07-26T06:05:56.991Z,78.98
2022-07-26T06:08:28.562Z,79.56
2022-07-26T06:10:59.920Z,79.78
2022-07-26T06:13:31.240Z,80.33
2022-07-26T06:16:02.588Z,80.88
2022-07-26T06:18:34.255Z,81.68
2022-07-26T06:21:05.834Z,82.15
2022-07-26T06:23:37.159Z,82.92
2022-07-26T06:26:08.565Z,82.97
2022-07-26T06:28:39.968Z,83.61
2022-07-26T06:31:11.351Z,83.62
2022-07-26T06:33:42.809Z,84.09
2022-07-26T06:36:14.382Z,83.17
2022-07-26T06:38:45.740Z,83.42
2022-07-26T06:41:20.454Z,84.02
2022-07-26T06:43:52.014Z,82.66
2022-07-26T06:46:23.374Z,81.30
2022-07-26T06:48:57.023Z,81.15
2022-07-26T06:51:28.686Z,80.80
2022-07-26T06:54:00.911Z,81.46
2022-07-26T06:56:32.524Z,81.56
2022-07-26T06:59:09.051Z,81.30
2022-07-26T07:01:58.611Z,81.73
2022-07-26T07:04:33.074Z,81.85
2022-07-26T07:07:06.215Z,81.85
2022-07-26T07:09:38.448Z,81.58
2022-07-26T07:12:10.853Z,81.11
2022-07-26T07:14:42.372Z,80.76
2022-07-26T07:17:20.338Z,79.99
2022-07-26T07:19:53.585Z,80.27
2022-07-26T07:22:25.010Z,80.23
2022-07-26T07:24:57.468Z,80.05
2022-07-26T07:27:30.540Z,79.90
2022-07-26T07:30:02.947Z,79.38
2022-07-26T07:32:35.581Z,79.12
2022-07-26T07:35:12.525Z,79.29
2022-07-26T07:37:52.160Z,78.52
2022-07-26T07:40:23.927Z,78.05
2022-07-26T07:42:55.339Z,77.77
2022-07-26T07:45:27.029Z,77.39
2022-07-26T07:47:58.401Z,76.75
2022-07-26T07:50:29.877Z,76.59
2022-07-26T07:53:02.180Z,76.41
2022-07-26T07:55:40.429Z,75.42
2022-07-26T07:58:13.301Z,75.15
2022-07-26T08:00:46.759Z,75.23
2022-07-26T08:03:19.798Z,75.45
2022-07-26T08:05:51.146Z,74.87
2022-07-26T08:08:22.898Z,75.43
2022-07-26T08:10:54.410Z,75.21
2022-07-26T08:13:28.249Z,75.16
2022-07-26T08:15:59.627Z,74.01
2022-07-26T08:18:32.495Z,73.92
2022-07-26T08:21:03.987Z,72.96
2022-07-26T08:23:36.705Z,72.36
2022-07-26T08:26:08.153Z,71.64
2022-07-26T08:28:48.211Z,71.07
2022-07-26T08:31:21.055Z,71.26
2022-07-26T08:33:52.455Z,70.52
2022-07-26T08:36:24.246Z,69.77
2022-07-26T08:38:55.713Z,69.86
2022-07-26T08:41:27.409Z,69.76
2022-07-26T08:44:10.323Z,69.76
2022-07-26T08:46:42.518Z,70.11
2022-07-26T08:49:15.117Z,69.99
2022-07-26T08:51:46.577Z,69.28
2022-07-26T08:54:17.985Z,69.82
2022-07-26T08:56:51.673Z,70.91
2022-07-26T08:59:24.381Z,72.17
2022-07-26T09:02:06.733Z,72.80
2022-07-26T09:04:44.715Z,72.45
2022-07-26T09:07:18.514Z,72.46
2022-07-26T09:09:59.176Z,71.73
2022-07-26T09:12:32.425Z,71.34
2022-07-26T09:15:06.154Z,70.58
2022-07-26T09:17:43.971Z,70.67
2022-07-26T09:20:30.015Z,70.30
2022-07-26T09:23:09.617Z,70.28
2022-07-26T09:25:43.143Z,68.88
2022-07-26T09:28:29.514Z,67.68
2022-07-26T09:31:03.103Z,67.62
2022-07-26T09:33:49.068Z,67.28
2022-07-26T09:36:21.492Z,69.12
2022-07-26T09:38:58.965Z,71.01
2022-07-26T09:41:36.429Z,72.16
2022-07-26T09:44:22.160Z,73.55
2022-07-26T09:46:57.018Z,73.69
2022-07-26T09:49:40.396Z,73.64
2022-07-26T09:52:20.730Z,73.53
2022-07-26T09:54:52.103Z,72.67
2022-07-26T09:57:24.130Z,72.49
2022-07-26T09:59:55.796Z,72.22
2022-07-26T10:02:27.821Z,72.42
2022-07-26T10:04:59.207Z,72.08
2022-07-26T10:07:30.736Z,70.53
2022-07-26T10:10:08.740Z,70.08
2022-07-26T10:12:44.074Z,69.42
2022-07-26T10:15:39.320Z,68.70
2022-07-26T10:18:30.599Z,69.05
2022-07-26T10:21:22.141Z,68.03
2022-07-26T10:23:58.706Z,67.58
2022-07-26T10:26:33.030Z,67.36
2022-07-26T10:29:19.196Z,66.35
2022-07-26T10:32:13.756Z,64.39
2022-07-26T10:34:46.334Z,64.70
2022-07-26T10:37:23.888Z,63.89
2022-07-26T10:40:16.637Z,63.77
2022-07-26T10:42:48.177Z,65.40
2022-07-26T10:45:22.370Z,64.75
2022-07-26T10:48:13.247Z,63.63
2022-07-26T10:50:47.386Z,64.09
2022-07-26T10:53:24.122Z,63.70
2022-07-26T10:55:58.677Z,64.02
2022-07-26T10:58:42.286Z,62.76
2022-07-26T11:01:13.850Z,63.15
2022-07-26T11:03:45.615Z,62.67
2022-07-26T11:06:18.851Z,62.06
2022-07-26T11:08:50.255Z,61.17
2022-07-26T11:11:29.723Z,60.88
2022-07-26T11:14:09.972Z,60.43
2022-07-26T11:16:50.168Z,60.66
2022-07-26T11:19:24.627Z,60.66
2022-07-26T11:21:58.866Z,60.69
2022-07-26T11:24:30.647Z,60.93
2022-07-26T11:27:03.945Z,60.42
2022-07-26T11:29:40.647Z,59.61
2022-07-26T11:32:20.425Z,58.69
2022-07-26T11:35:01.234Z,58.84
2022-07-26T11:37:32.679Z,59.40
2022-07-26T11:40:04.537Z,58.49
2022-07-26T11:42:36.023Z,57.67
2022-07-26T11:45:10.446Z,57.16
2022-07-26T11:47:41.870Z,57.31
2022-07-26T11:50:18.622Z,58.14
2022-07-26T11:52:53.171Z,58.22
2022-07-26T11:55:31.200Z,58.75
2022-07-26T11:58:06.760Z,58.53
2022-07-26T12:00:38.236Z,58.82
2022-07-26T12:03:09.692Z,58.36
2022-07-26T12:05:42.071Z,57.73
2022-07-26T12:08:13.664Z,57.38
2022-07-26T12:10:53.822Z,56.44
2022-07-26T12:13:26.162Z,56.90
2022-07-26T12:15:57.684Z,56.38
2022-07-26T12:18:30.833Z,55.52
2022-07-26T12:21:08.950Z,53.97
2022-07-26T12:23:50.723Z,53.90
2022-07-26T12:26:27.301Z,54.57
2022-07-26T12:29:18.862Z,54.66
2022-07-26T12:32:11.949Z,54.73
2022-07-26T12:35:03.644Z,54.64
2022-07-26T12:37:41.022Z,55.53
2022-07-26T12:40:18.113Z,55.89
2022-07-26T12:42:49.439Z,55.77
2022-07-26T12:45:28.207Z,54.74
2022-07-26T12:48:02.790Z,54.77
2022-07-26T12:50:34.286Z,54.45
2022-07-26T12:53:07.456Z,54.06
2022-07-26T12:55:38.804Z,54.26
2022-07-26T12:58:10.190Z,54.30
2022-07-26T13:00:41.565Z,54.16
2022-07-26T13:03:13.942Z,53.40
2022-07-26T13:05:45.354Z,53.30
2022-07-26T13:08:16.706Z,53.10
2022-07-26T13:10:48.049Z,53.01
2022-07-26T13:13:19.471Z,52.98
2022-07-26T13:15:50.937Z,52.54
2022-07-26T13:18:22.311Z,52.15
2022-07-26T13:20:53.720Z,51.87
2022-07-26T13:23:26.026Z,51.87
2022-07-26T13:25:58.295Z,51.65
2022-07-26T13:28:31.128Z,51.23
2022-07-26T13:31:02.626Z,51.19
2022-07-26T13:33:34.134Z,51.00
2022-07-26T13:36:05.601Z,50.97
2022-07-26T13:38:36.971Z,50.42
2022-07-26T13:41:09.000Z,50.07
2022-07-26T13:43:40.520Z,50.06
2022-07-26T13:46:11.936Z,49.59
2022-07-26T13:48:58.261Z,49.71
2022-07-26T13:51:53.825Z,49.83
2022-07-26T13:54:26.760Z,50.13
2022-07-26T13:57:00.280Z,49.54
2022-07-26T13:59:31.604Z,50.16
2022-07-26T14:02:04.669Z,50.14
2022-07-26T14:04:36.162Z,49.75
2022-07-26T14:07:07.475Z,49.23
2022-07-26T14:09:38.772Z,48.63
2022-07-26T14:12:13.525Z,48.25
2022-07-26T14:14:44.918Z,47.59
2022-07-26T14:17:16.230Z,47.63
2022-07-26T14:19:47.600Z,47.59
2022-07-26T14:22:18.977Z,47.74
2022-07-26T14:24:50.312Z,47.77
2022-07-26T14:27:21.771Z,47.95
2022-07-26T14:29:53.070Z,47.33
2022-07-26T14:32:24.611Z,46.76
2022-07-26T14:34:56.014Z,46.36
2022-07-26T14:37:42.524Z,46.13
2022-07-26T14:40:17.439Z,46.63
2022-07-26T14:42:49.151Z,46.61
2022-07-26T14:45:20.454Z,46.86
2022-07-26T14:47:51.755Z,46.05
2022-07-26T14:50:25.723Z,45.36
2022-07-26T14:52:57.058Z,45.03
2022-07-26T14:55:28.999Z,45.61
2022-07-26T14:58:00.431Z,46.11
2022-07-26T15:00:31.900Z,45.37
2022-07-26T15:03:03.391Z,46.01
2022-07-26T15:05:34.681Z,46.37
2022-07-26T15:08:06.441Z,46.62
2022-07-26T15:10:37.779Z,46.75
2022-07-26T15:13:09.262Z,46.55
2022-07-26T15:15:41.008Z,46.55
2022-07-26T15:18:12.392Z,46.03
2022-07-26T15:20:43.829Z,45.75
2022-07-26T15:23:16.673Z,45.92
2022-07-26T15:25:48.692Z,46.65
2022-07-26T15:28:20.181Z,47.10
2022-07-26T15:30:51.566Z,47.00
2022-07-26T15:33:23.003Z,46.92
2022-07-26T15:35:55.426Z,47.20
2022-07-26T15:38:26.756Z,47.58
2022-07-26T15:40:58.213Z,47.92
2022-07-26T15:43:48.909Z,48.14
2022-07-26T15:46:20.628Z,48.41
2022-07-26T15:48:54.398Z,48.52
2022-07-26T15:51:25.754Z,48.45
2022-07-26T15:53:57.126Z,48.22
2022-07-26T15:56:28.558Z,48.15
2022-07-26T15:58:59.972Z,48.27
2022-07-26T16:01:32.837Z,48.23
2022-07-26T16:04:05.563Z,48.28
2022-07-26T16:06:36.938Z,48.18
2022-07-26T16:09:17.915Z,48.56
2022-07-26T16:11:50.292Z,48.39
2022-07-26T16:14:21.645Z,48.14
2022-07-26T16:16:53.012Z,47.62
2022-07-26T16:19:24.379Z,47.38
2022-07-26T16:21:55.693Z,47.41
2022-07-26T16:24:27.007Z,47.95
2022-07-26T16:26:58.321Z,47.98
2022-07-26T16:29:29.609Z,47.76
2022-07-26T16:32:01.004Z,48.02
2022-07-26T16:34:34.656Z,48.43
2022-07-26T16:37:06.486Z,48.49
2022-07-26T16:39:37.828Z,48.50
2022-07-26T16:42:09.330Z,48.83
2022-07-26T16:44:40.988Z,48.65
2022-07-26T16:47:12.350Z,48.70
2022-07-26T16:49:43.715Z,48.81
2022-07-26T16:52:15.575Z,48.47
2022-07-26T16:54:46.877Z,48.46
2022-07-26T16:57:18.277Z,47.85
2022-07-26T16:59:49.753Z,48.34
2022-07-26T17:02:21.188Z,48.30
2022-07-26T17:04:53.852Z,48.75
2022-07-26T17:07:26.319Z,48.90
2022-07-26T17:09:58.006Z,48.67
2022-07-26T17:12:29.456Z,49.02
2022-07-26T17:15:00.796Z,49.72
2022-07-26T17:17:32.194Z,50.09
2022-07-26T17:20:04.746Z,50.13
2022-07-26T17:22:36.425Z,50.94
2022-07-26T17:25:08.189Z,50.53
2022-07-26T17:27:39.817Z,50.94
2022-07-26T17:30:12.010Z,51.47
2022-07-26T17:32:43.425Z,51.49
2022-07-26T17:35:14.908Z,52.24
2022-07-26T17:37:46.225Z,52.58
2022-07-26T17:40:18.794Z,53.13
2022-07-26T17:42:50.198Z,52.42
2022-07-26T17:45:21.604Z,53.02
2022-07-26T17:47:53.198Z,53.04
2022-07-26T17:50:37.116Z,53.18
2022-07-26T17:53:09.273Z,53.11
2022-07-26T17:55:40.667Z,53.47
2022-07-26T17:58:11.982Z,53.34
2022-07-26T18:00:43.417Z,53.58
2022-07-26T18:03:14.752Z,53.56
2022-07-26T18:05:46.118Z,53.77
2022-07-26T18:08:17.761Z,53.64
2022-07-26T18:10:51.246Z,53.15
2022-07-26T18:13:23.256Z,52.89
2022-07-26T18:15:55.815Z,52.48
2022-07-26T18:18:27.155Z,52.42
2022-07-26T18:20:58.600Z,51.56
2022-07-26T18:23:30.016Z,51.83
2022-07-26T18:26:01.333Z,51.73
2022-07-26T18:28:32.682Z,51.93
2022-07-26T18:31:04.041Z,52.01
2022-07-26T18:33:35.720Z,52.63
2022-07-26T18:36:07.875Z,52.71
2022-07-26T18:38:39.414Z,52.65
2022-07-26T18:41:12.298Z,52.85
2022-07-26T18:43:44.092Z,53.39
2022-07-26T18:46:16.323Z,53.22
2022-07-26T18:48:47.803Z,53.56
2022-07-26T18:51:19.978Z,53.25
2022-07-26T18:53:51.312Z,53.72
2022-07-26T18:56:23.246Z,53.59
2022-07-26T18:58:54.704Z,54.14
2022-07-26T19:01:26.178Z,54.12
2022-07-26T19:03:57.632Z,53.86
2022-07-26T19:06:29.052Z,53.76
2022-07-26T19:09:00.501Z,54.11
2022-07-26T19:11:33.105Z,54.38
2022-07-26T19:14:09.065Z,54.40
2022-07-26T19:16:40.411Z,54.55
2022-07-26T19:19:12.034Z,54.57
2022-07-26T19:21:47.104Z,55.10
2022-07-26T19:24:18.533Z,55.22
2022-07-26T19:26:49.893Z,55.49
2022-07-26T19:29:21.375Z,55.55
2022-07-26T19:31:52.900Z,55.72
2022-07-26T19:34:26.457Z,56.13
2022-07-26T19:36:57.988Z,56.53
2022-07-26T19:39:29.307Z,57.08
2022-07-26T19:42:00.723Z,57.05
2022-07-26T19:44:32.165Z,57.33
2022-07-26T19:47:03.568Z,57.64
2022-07-26T19:49:35.502Z,57.88
2022-07-26T19:52:11.379Z,58.49
2022-07-26T19:54:43.080Z,58.93
2022-07-26T19:57:14.724Z,59.26
2022-07-26T19:59:47.739Z,59.60
2022-07-26T20:02:19.565Z,59.67
2022-07-26T20:04:51.762Z,60.09
2022-07-26T20:07:23.134Z,60.36
2022-07-26T20:09:54.518Z,60.69
2022-07-26T20:12:25.897Z,60.92
2022-07-26T20:14:57.221Z,60.95
2022-07-26T20:17:33.194Z,61.66
2022-07-26T20:20:05.479Z,61.67
2022-07-26T20:22:36.861Z,61.52
2022-07-26T20:25:09.197Z,61.74
2022-07-26T20:27:40.762Z,62.34
2022-07-26T20:30:12.425Z,62.79
2022-07-26T20:32:44.338Z,62.80
2022-07-26T20:35:15.838Z,62.90
2022-07-26T20:37:47.326Z,63.65
2022-07-26T20:40:18.926Z,63.68
2022-07-26T20:42:50.948Z,63.71
2022-07-26T20:45:23.889Z,64.17
2022-07-26T20:47:55.506Z,63.81
2022-07-26T20:50:27.974Z,64.46
2022-07-26T20:52:59.275Z,64.39
2022-07-26T20:55:30.909Z,64.65
2022-07-26T20:58:02.356Z,64.80
2022-07-26T21:00:33.862Z,64.89
2022-07-26T21:03:05.366Z,65.19
2022-07-26T21:05:36.689Z,65.21
2022-07-26T21:08:08.196Z,65.55
2022-07-26T21:10:39.715Z,65.46
2022-07-26T21:13:11.061Z,65.68
2022-07-26T21:15:42.493Z,65.79
2022-07-26T21:18:13.810Z,65.91
2022-07-26T21:20:46.049Z,66.24
2022-07-26T21:23:19.056Z,66.33
2022-07-26T21:26:00.286Z,66.28
2022-07-26T21:28:33.829Z,66.22
2022-07-26T21:31:05.269Z,66.58
2022-07-26T21:33:36.702Z,66.29
2022-07-26T21:36:08.018Z,66.44
2022-07-26T21:38:39.368Z,66.41
2022-07-26T21:41:13.382Z,67.04
2022-07-26T21:43:45.041Z,66.66
2022-07-26T21:46:16.589Z,67.07
2022-07-26T21:48:48.059Z,67.12
2022-07-26T21:51:19.457Z,67.05
2022-07-26T21:53:50.769Z,67.02
2022-07-26T21:56:22.252Z,67.34
2022-07-26T21:58:53.936Z,67.46
2022-07-26T22:01:26.265Z,67.54
2022-07-26T22:03:57.678Z,67.93
2022-07-26T22:06:28.989Z,67.56
2022-07-26T22:09:00.293Z,68.22
2022-07-26T22:11:31.654Z,67.89
2022-07-26T22:14:03.011Z,67.81
2022-07-26T22:16:35.102Z,68.16
2022-07-26T22:19:06.721Z,68.13
2022-07-26T22:21:38.365Z,68.06
2022-07-26T22:24:09.882Z,68.53
2022-07-26T22:26:42.087Z,68.57
2022-07-26T22:29:13.734Z,68.99
2022-07-26T22:31:45.343Z,68.92
2022-07-26T22:34:16.794Z,69.23
2022-07-26T22:36:49.026Z,69.15
2022-07-26T22:39:20.323Z,69.27
2022-07-26T22:42:13.730Z,69.34
2022-07-26T22:44:43.459Z,69.69
2022-07-26T22:47:14.851Z,69.16
2022-07-26T22:49:46.157Z,69.38
2022-07-26T22:52:17.978Z,69.34
2022-07-26T22:54:49.307Z,69.69
2022-07-26T22:57:20.839Z,68.84
2022-07-26T22:59:52.205Z,69.47
2022-07-26T23:02:23.606Z,69.49
2022-07-26T23:04:54.898Z,69.20
2022-07-26T23:07:26.348Z,69.32
2022-07-26T23:10:00.644Z,69.90
2022-07-26T23:12:32.176Z,69.97
2022-07-26T23:15:05.325Z,69.87
2022-07-26T23:17:37.492Z,70.09
2022-07-26T23:20:09.931Z,69.61
2022-07-26T23:22:43.269Z,69.88
2022-07-26T23:25:14.660Z,69.98
2022-07-26T23:27:46.485Z,69.82
2022-07-26T23:30:17.928Z,70.09
2022-07-26T23:32:49.286Z,69.90
2022-07-26T23:35:21.314Z,70.04
2022-07-26T23:37:52.691Z,70.16
2022-07-26T23:40:24.979Z,70.44
2022-07-26T23:42:56.334Z,70.12
2022-07-26T23:45:27.733Z,70.50
2022-07-26T23:47:59.030Z,70.39
2022-07-26T23:50:31.551Z,70.59
2022-07-26T23:53:02.971Z,70.65
2022-07-26T23:55:36.115Z,71.03
2022-07-26T23:58:07.573Z,71.10
